createdAt,value
2022-10-16T00:01:14.229Z,98903.47
2022-10-16T00:03:41.844Z,98908.75
2022-10-16T00:06:09.344Z,98907.00
2022-10-16T00:08:36.521Z,98909.03
2022-10-16T00:11:23.123Z,98911.59
2022-10-16T00:13:51.009Z,98910.00
2022-10-16T00:16:18.351Z,98915.56
2022-10-16T00:18:45.238Z,98912.72
2022-10-16T00:21:15.336Z,98915.28
2022-10-16T00:23:42.255Z,98912.72
2022-10-16T00:26:11.747Z,98907.44
2022-10-16T00:28:38.651Z,98897.59
2022-10-16T00:31:12.202Z,98901.16
2022-10-16T00:33:39.528Z,98906.44
2022-10-16T00:36:07.123Z,98913.59
2022-10-16T00:38:33.991Z,98901.16
2022-10-16T00:41:01.110Z,98908.44
2022-10-16T00:43:47.773Z,98911.16
2022-10-16T00:46:23.123Z,98909.44
2022-10-16T00:49:11.896Z,98903.16
2022-10-16T00:51:41.275Z,98899.56
2022-10-16T00:54:14.473Z,98896.00
2022-10-16T00:56:41.832Z,98901.44
2022-10-16T00:59:16.313Z,98894.31
2022-10-16T01:01:43.294Z,98906.88
2022-10-16T01:04:10.058Z,98906.88
2022-10-16T01:06:55.850Z,98905.88
2022-10-16T01:09:45.345Z,98906.88
2022-10-16T01:12:21.614Z,98908.03
2022-10-16T01:14:56.538Z,98913.44
2022-10-16T01:17:25.529Z,98918.72
2022-10-16T01:20:07.668Z,98917.16
2022-10-16T01:22:40.014Z,98919.00
2022-10-16T01:25:09.174Z,98914.56
2022-10-16T01:27:36.177Z,98916.44
2022-10-16T01:30:10.981Z,98920.00
2022-10-16T01:32:58.361Z,98918.44
2022-10-16T01:35:33.551Z,98925.69
2022-10-16T01:38:12.708Z,98924.00
2022-10-16T01:40:43.557Z,98927.69
2022-10-16T01:43:13.601Z,98925.84
2022-10-16T01:45:40.372Z,98918.72
2022-10-16T01:48:08.896Z,98919.84
2022-10-16T01:50:38.316Z,98920.69
2022-10-16T01:53:05.221Z,98925.13
2022-10-16T01:55:34.773Z,98927.13
2022-10-16T01:58:01.692Z,98930.81
2022-10-16T02:00:28.764Z,98926.56
2022-10-16T02:02:56.276Z,98933.66
2022-10-16T02:05:27.508Z,98934.69
2022-10-16T02:07:54.312Z,98928.69
2022-10-16T02:10:21.833Z,98937.66
2022-10-16T02:13:10.591Z,98936.66
2022-10-16T02:15:37.619Z,98941.09
2022-10-16T02:18:08.008Z,98937.81
2022-10-16T02:20:45.407Z,98934.13
2022-10-16T02:23:13.380Z,98937.81
2022-10-16T02:25:41.408Z,98946.06
2022-10-16T02:28:10.481Z,98943.22
2022-10-16T02:31:01.831Z,98944.22
2022-10-16T02:33:28.627Z,98938.78
2022-10-16T02:35:55.691Z,98938.66
2022-10-16T02:38:22.641Z,98946.94
2022-10-16T02:40:49.642Z,98939.81
2022-10-16T02:43:16.399Z,98942.53
2022-10-16T02:45:43.403Z,98943.63
2022-10-16T02:48:10.218Z,98945.22
2022-10-16T02:50:37.250Z,98938.94
2022-10-16T02:53:03.991Z,98947.06
2022-10-16T02:55:31.448Z,98946.22
2022-10-16T02:57:58.241Z,98948.94
2022-10-16T03:00:25.256Z,98947.50
2022-10-16T03:02:51.989Z,98948.34
2022-10-16T03:05:19.141Z,98953.63
2022-10-16T03:07:45.985Z,98960.03
2022-10-16T03:10:13.141Z,98958.34
2022-10-16T03:12:39.889Z,98959.47
2022-10-16T03:15:08.045Z,98964.88
2022-10-16T03:17:34.888Z,98956.88
2022-10-16T03:20:01.885Z,98962.31
2022-10-16T03:22:28.682Z,98960.31
2022-10-16T03:24:55.724Z,98962.19
2022-10-16T03:27:22.460Z,98953.19
2022-10-16T03:29:49.496Z,98945.34
2022-10-16T03:32:16.317Z,98956.31
2022-10-16T03:34:43.344Z,98957.47
2022-10-16T03:37:10.146Z,98954.59
2022-10-16T03:39:37.104Z,98953.88
2022-10-16T03:42:03.869Z,98958.31
2022-10-16T03:44:31.007Z,98949.59
2022-10-16T03:46:57.768Z,98942.44
2022-10-16T03:49:24.781Z,98947.16
2022-10-16T03:51:51.556Z,98947.28
2022-10-16T03:54:18.588Z,98945.44
2022-10-16T03:56:45.335Z,98941.75
2022-10-16T03:59:12.347Z,98948.00
2022-10-16T04:01:39.110Z,98958.97
2022-10-16T04:04:06.152Z,98961.69
2022-10-16T04:06:32.916Z,98959.88
2022-10-16T04:08:59.980Z,98960.84
2022-10-16T04:11:26.735Z,98973.94
2022-10-16T04:13:53.739Z,98985.50
2022-10-16T04:16:20.615Z,98981.06
2022-10-16T04:18:47.592Z,98975.50
2022-10-16T04:21:14.357Z,98974.81
2022-10-16T04:23:41.323Z,98964.97
2022-10-16T04:26:08.071Z,98969.91
2022-10-16T04:28:35.190Z,98974.22
2022-10-16T04:31:05.088Z,98977.78
2022-10-16T04:33:32.167Z,98977.06
2022-10-16T04:35:59.736Z,98983.34
2022-10-16T04:38:26.859Z,98988.16
2022-10-16T04:40:53.837Z,98979.06
2022-10-16T04:43:21.000Z,98983.63
2022-10-16T04:45:48.039Z,98987.31
2022-10-16T04:48:15.034Z,98999.00
2022-10-16T04:50:42.214Z,99002.88
2022-10-16T04:53:09.471Z,98999.16
2022-10-16T04:55:36.253Z,99012.69
2022-10-16T04:58:03.266Z,99008.69
2022-10-16T05:00:30.056Z,99015.84
2022-10-16T05:02:57.284Z,99022.22
2022-10-16T05:05:24.154Z,99016.06
2022-10-16T05:07:51.206Z,99025.19
2022-10-16T05:10:18.063Z,99017.03
2022-10-16T05:12:45.124Z,99020.59
2022-10-16T05:15:11.963Z,99018.06
2022-10-16T05:17:42.507Z,99010.78
2022-10-16T05:20:12.162Z,99015.47
2022-10-16T05:22:39.150Z,99022.59
2022-10-16T05:25:06.329Z,99023.75
2022-10-16T05:27:33.360Z,99019.16
2022-10-16T05:30:00.131Z,99023.75
2022-10-16T05:32:27.105Z,99018.31
2022-10-16T05:34:53.928Z,99024.59
2022-10-16T05:37:20.894Z,99034.72
2022-10-16T05:39:47.665Z,99036.41
2022-10-16T05:42:15.616Z,99044.41
2022-10-16T05:44:42.425Z,99042.72
2022-10-16T05:47:09.454Z,99036.41
2022-10-16T05:49:39.075Z,99047.25
2022-10-16T05:52:08.659Z,99049.97
2022-10-16T05:54:35.405Z,99049.09
2022-10-16T05:57:03.144Z,99050.97
2022-10-16T05:59:29.896Z,99058.09
2022-10-16T06:01:56.877Z,99057.22
2022-10-16T06:04:23.704Z,99056.13
2022-10-16T06:06:50.705Z,99065.38
2022-10-16T06:09:17.460Z,99063.78
2022-10-16T06:11:44.460Z,99068.19
2022-10-16T06:14:11.245Z,99070.78
2022-10-16T06:16:38.392Z,99065.38
2022-10-16T06:19:07.416Z,99066.09
2022-10-16T06:21:34.704Z,99073.94
2022-10-16T06:24:01.614Z,99078.16
2022-10-16T06:26:29.708Z,99086.16
2022-10-16T06:28:57.288Z,99090.56
2022-10-16T06:31:28.256Z,99096.31
2022-10-16T06:33:55.228Z,99096.06
2022-10-16T06:36:22.272Z,99099.38
2022-10-16T06:38:49.050Z,99094.53
2022-10-16T06:41:17.664Z,99096.13
2022-10-16T06:43:46.127Z,99102.13
2022-10-16T06:46:14.076Z,99101.00
2022-10-16T06:48:40.873Z,99093.59
2022-10-16T06:51:11.419Z,99088.78
2022-10-16T06:54:00.985Z,99096.50
2022-10-16T06:56:28.279Z,99097.94
2022-10-16T06:58:55.126Z,99098.97
2022-10-16T07:01:23.619Z,99095.88
2022-10-16T07:03:50.527Z,99104.47
2022-10-16T07:06:19.205Z,99098.06
2022-10-16T07:08:47.259Z,99103.03
2022-10-16T07:11:16.495Z,99103.53
2022-10-16T07:13:44.242Z,99108.50
2022-10-16T07:16:19.935Z,99120.97
2022-10-16T07:18:47.587Z,99111.81
2022-10-16T07:21:18.771Z,99107.97
2022-10-16T07:23:45.608Z,99120.69
2022-10-16T07:26:12.699Z,99122.59
2022-10-16T07:28:40.798Z,99133.06
2022-10-16T07:31:12.759Z,99134.03
2022-10-16T07:33:40.446Z,99134.75
2022-10-16T07:36:09.587Z,99135.22
2022-10-16T07:38:38.972Z,99124.09
2022-10-16T07:41:07.468Z,99132.81
2022-10-16T07:43:34.369Z,99141.56
2022-10-16T07:46:04.018Z,99136.72
2022-10-16T07:48:34.029Z,99135.28
2022-10-16T07:51:01.776Z,99131.44
2022-10-16T07:53:28.604Z,99132.03
2022-10-16T07:56:03.411Z,99134.00
2022-10-16T07:58:30.358Z,99137.47
2022-10-16T08:00:57.703Z,99128.03
2022-10-16T08:03:25.154Z,99134.03
2022-10-16T08:05:52.403Z,99138.19
2022-10-16T08:08:19.407Z,99136.34
2022-10-16T08:10:46.414Z,99133.34
2022-10-16T08:13:16.184Z,99133.06
2022-10-16T08:15:44.400Z,99129.31
2022-10-16T08:18:11.927Z,99132.59
2022-10-16T08:20:39.185Z,99140.34
2022-10-16T08:23:06.145Z,99137.91
2022-10-16T08:25:40.107Z,99142.06
2022-10-16T08:28:07.627Z,99144.34
2022-10-16T08:30:34.844Z,99144.06
2022-10-16T08:33:01.952Z,99152.50
2022-10-16T08:35:29.035Z,99161.09
2022-10-16T08:37:55.781Z,99166.00
2022-10-16T08:40:27.981Z,99162.97
2022-10-16T08:43:17.723Z,99171.44
2022-10-16T08:45:57.035Z,99177.16
2022-10-16T08:48:37.474Z,99173.81
2022-10-16T08:51:04.504Z,99174.09
2022-10-16T08:53:37.813Z,99171.78
2022-10-16T08:56:04.977Z,99166.63
2022-10-16T08:58:31.748Z,99173.50
2022-10-16T09:01:02.919Z,99173.91
2022-10-16T09:03:53.331Z,99172.31
2022-10-16T09:06:38.792Z,99168.16
2022-10-16T09:09:24.365Z,99177.72
2022-10-16T09:12:01.598Z,99175.41
2022-10-16T09:15:06.134Z,99187.59
2022-10-16T09:17:36.297Z,99182.88
2022-10-16T09:20:51.509Z,99186.84
2022-10-16T09:23:29.269Z,99181.66
2022-10-16T09:25:56.309Z,99184.13
2022-10-16T09:28:23.394Z,99192.00
2022-10-16T09:30:50.956Z,99187.09
2022-10-16T09:33:24.642Z,99191.94
2022-10-16T09:35:52.973Z,99201.66
2022-10-16T09:38:33.797Z,99193.06
2022-10-16T09:41:03.467Z,99191.88
2022-10-16T09:43:37.202Z,99200.47
2022-10-16T09:46:06.115Z,99203.22
2022-10-16T09:48:49.047Z,99206.47
2022-10-16T09:51:30.415Z,99198.56
2022-10-16T09:53:58.902Z,99204.72
2022-10-16T09:56:30.798Z,99196.09
2022-10-16T09:58:59.462Z,99207.53
2022-10-16T10:01:52.496Z,99198.19
2022-10-16T10:04:24.352Z,99196.00
2022-10-16T10:06:55.917Z,99199.44
2022-10-16T10:09:25.544Z,99193.13
2022-10-16T10:11:56.998Z,99200.16
2022-10-16T10:14:38.876Z,99206.84
2022-10-16T10:17:05.841Z,99196.25
2022-10-16T10:19:52.609Z,99202.97
2022-10-16T10:22:47.072Z,99205.25
2022-10-16T10:25:14.334Z,99214.97
2022-10-16T10:27:41.210Z,99217.53
2022-10-16T10:33:05.834Z,99218.69
2022-10-16T10:35:36.147Z,99210.22
2022-10-16T10:38:40.508Z,99218.09
2022-10-16T10:41:26.634Z,99219.81
2022-10-16T10:44:05.581Z,99214.50
2022-10-16T10:46:52.132Z,99210.75
2022-10-16T10:49:28.208Z,99205.16
2022-10-16T10:52:26.188Z,99206.72
2022-10-16T10:55:21.581Z,99207.56
2022-10-16T10:57:54.609Z,99203.16
2022-10-16T11:00:32.096Z,99201.53
2022-10-16T11:03:42.432Z,99203.53
2022-10-16T11:06:17.297Z,99211.84
2022-10-16T11:08:46.252Z,99206.69
2022-10-16T11:11:50.744Z,99204.66
2022-10-16T11:14:22.333Z,99211.34
2022-10-16T11:16:57.007Z,99214.22
2022-10-16T11:19:37.672Z,99208.47
2022-10-16T11:22:13.884Z,99204.44
2022-10-16T11:24:45.334Z,99207.00
2022-10-16T11:27:15.805Z,99204.28
2022-10-16T11:29:48.163Z,99202.94
2022-10-16T11:32:25.264Z,99191.16
2022-10-16T11:34:54.945Z,99188.97
2022-10-16T11:37:25.464Z,99193.59
2022-10-16T11:39:53.560Z,99195.66
2022-10-16T11:42:46.100Z,99205.28
2022-10-16T11:45:27.564Z,99218.81
2022-10-16T11:48:15.908Z,99214.75
2022-10-16T11:50:55.136Z,99214.59
2022-10-16T11:53:35.729Z,99221.63
2022-10-16T11:56:02.524Z,99217.56
2022-10-16T11:58:40.533Z,99215.66
2022-10-16T12:01:10.475Z,99218.94
2022-10-16T12:04:06.396Z,99231.25
2022-10-16T12:06:41.984Z,99225.97
2022-10-16T12:09:29.028Z,99226.81
2022-10-16T12:11:55.870Z,99227.91
2022-10-16T12:17:37.985Z,99230.28
2022-10-16T12:20:14.500Z,99233.59
2022-10-16T12:22:52.266Z,99225.41
2022-10-16T12:25:23.329Z,99219.22
2022-10-16T12:28:18.603Z,99215.16
2022-10-16T12:30:54.092Z,99213.97
2022-10-16T12:33:21.999Z,99223.88
2022-10-16T12:35:49.049Z,99224.28
2022-10-16T12:38:48.335Z,99220.84
2022-10-16T12:41:25.716Z,99224.50
2022-10-16T12:43:52.507Z,99228.97
2022-10-16T12:46:19.522Z,99232.53
2022-10-16T12:49:02.197Z,99230.50
2022-10-16T12:51:33.274Z,99231.34
2022-10-16T12:54:01.188Z,99237.53
2022-10-16T12:56:52.852Z,99251.19
2022-10-16T12:59:22.658Z,99246.41
2022-10-16T13:01:52.321Z,99247.41
2022-10-16T13:04:29.594Z,99245.94
2022-10-16T13:07:35.838Z,99243.69
2022-10-16T13:10:33.527Z,99242.47
2022-10-16T13:13:38.981Z,99247.63
2022-10-16T13:16:09.309Z,99235.69
2022-10-16T13:18:55.091Z,99230.72
2022-10-16T13:21:47.946Z,99232.44
2022-10-16T13:24:20.650Z,99236.34
2022-10-16T13:26:53.545Z,99221.88
2022-10-16T13:29:20.791Z,99235.38
2022-10-16T13:31:47.600Z,99236.75
2022-10-16T13:34:18.377Z,99236.75
2022-10-16T13:36:52.640Z,99231.13
2022-10-16T13:39:30.353Z,99230.28
2022-10-16T13:42:27.027Z,99224.88
2022-10-16T13:44:56.093Z,99232.03
2022-10-16T13:47:28.052Z,99236.66
2022-10-16T13:50:12.376Z,99251.00
2022-10-16T13:52:39.287Z,99253.41
2022-10-16T13:55:16.868Z,99252.03
2022-10-16T13:57:43.767Z,99242.16
2022-10-16T14:00:20.087Z,99233.94
2022-10-16T14:02:46.923Z,99227.13
2022-10-16T14:05:14.884Z,99236.03
2022-10-16T14:07:41.790Z,99235.84
2022-10-16T14:10:24.021Z,99248.19
2022-10-16T14:13:01.703Z,99253.50
2022-10-16T14:15:28.701Z,99249.19
2022-10-16T14:17:55.470Z,99256.53
2022-10-16T14:20:26.523Z,99256.03
2022-10-16T14:23:01.307Z,99253.97
2022-10-16T14:25:30.563Z,99268.50
2022-10-16T14:27:59.968Z,99257.72
2022-10-16T14:30:26.884Z,99257.72
2022-10-16T14:33:05.432Z,99262.19
2022-10-16T14:35:34.856Z,99265.06
2022-10-16T14:38:02.850Z,99266.78
2022-10-16T14:40:31.953Z,99267.47
2022-10-16T14:42:59.279Z,99272.94
2022-10-16T14:45:28.491Z,99266.47
2022-10-16T14:48:06.838Z,99268.31
2022-10-16T14:50:33.759Z,99269.38
2022-10-16T14:53:00.958Z,99270.38
2022-10-16T14:55:27.760Z,99261.66
2022-10-16T14:57:58.283Z,99270.84
2022-10-16T15:00:27.595Z,99272.91
2022-10-16T15:02:54.745Z,99271.38
2022-10-16T15:05:23.343Z,99273.38
2022-10-16T15:07:51.955Z,99266.38
2022-10-16T15:10:18.934Z,99280.91
2022-10-16T15:12:46.010Z,99285.69
2022-10-16T15:15:24.834Z,99288.56
2022-10-16T15:17:57.131Z,99293.19
2022-10-16T15:20:28.278Z,99298.81
2022-10-16T15:22:55.274Z,99294.34
2022-10-16T15:25:44.247Z,99293.66
2022-10-16T15:28:11.606Z,99295.69
2022-10-16T15:30:38.555Z,99294.13
2022-10-16T15:33:06.134Z,99297.03
2022-10-16T15:35:32.926Z,99298.22
2022-10-16T15:38:00.046Z,99294.75
2022-10-16T15:40:26.979Z,99292.38
2022-10-16T15:42:53.988Z,99297.13
2022-10-16T15:45:20.800Z,99305.47
2022-10-16T15:47:47.825Z,99304.78
2022-10-16T15:50:15.994Z,99306.97
2022-10-16T15:52:43.072Z,99307.16
2022-10-16T15:55:11.117Z,99310.19
2022-10-16T15:57:42.334Z,99305.06
2022-10-16T16:00:21.696Z,99303.50
2022-10-16T16:02:53.080Z,99309.41
2022-10-16T16:05:20.204Z,99311.28
2022-10-16T16:07:47.168Z,99314.31
2022-10-16T16:10:14.132Z,99318.25
2022-10-16T16:12:41.130Z,99324.00
2022-10-16T16:15:09.198Z,99332.50
2022-10-16T16:17:36.406Z,99325.47
2022-10-16T16:20:04.846Z,99327.81
2022-10-16T16:22:32.039Z,99331.75
2022-10-16T16:24:58.847Z,99345.53
2022-10-16T16:27:26.537Z,99343.13
2022-10-16T16:29:54.405Z,99357.94
2022-10-16T16:32:21.402Z,99361.84
2022-10-16T16:34:48.408Z,99364.88
2022-10-16T16:37:15.364Z,99381.25
2022-10-16T16:39:42.310Z,99380.84
2022-10-16T16:42:11.037Z,99396.53
2022-10-16T16:44:38.030Z,99402.28
2022-10-16T16:47:05.805Z,99409.06
2022-10-16T16:49:32.907Z,99410.22
2022-10-16T16:52:00.015Z,99413.25
2022-10-16T16:54:27.004Z,99416.28
2022-10-16T16:56:54.144Z,99410.28
2022-10-16T16:59:21.294Z,99413.16
2022-10-16T17:01:51.811Z,99416.19
2022-10-16T17:04:20.994Z,99421.09
2022-10-16T17:06:48.006Z,99422.41
2022-10-16T17:09:16.061Z,99430.91
2022-10-16T17:11:43.996Z,99425.03
2022-10-16T17:14:10.889Z,99433.38
2022-10-16T17:16:38.889Z,99429.16
2022-10-16T17:19:07.564Z,99436.66
2022-10-16T17:21:35.239Z,99440.53
2022-10-16T17:24:02.128Z,99440.84
2022-10-16T17:26:29.473Z,99443.00
2022-10-16T17:28:58.104Z,99434.97
2022-10-16T17:31:27.076Z,99447.91
2022-10-16T17:33:53.842Z,99447.16
2022-10-16T17:36:21.137Z,99442.03
2022-10-16T17:38:48.490Z,99460.09
2022-10-16T17:41:15.504Z,99452.22
2022-10-16T17:43:42.306Z,99449.63
2022-10-16T17:46:09.832Z,99458.84
2022-10-16T17:48:40.358Z,99451.94
2022-10-16T17:51:08.154Z,99454.94
2022-10-16T17:53:35.322Z,99460.41
2022-10-16T17:56:10.406Z,99465.16
2022-10-16T17:58:37.534Z,99459.00
2022-10-16T18:01:18.577Z,99464.59
2022-10-16T18:03:49.469Z,99465.03
2022-10-16T18:06:22.484Z,99473.47
2022-10-16T18:08:53.664Z,99482.69
2022-10-16T18:11:20.988Z,99480.81
2022-10-16T18:13:47.827Z,99483.81
2022-10-16T18:16:15.416Z,99496.72
2022-10-16T18:18:43.096Z,99488.69
2022-10-16T18:21:11.464Z,99495.31
2022-10-16T18:23:38.361Z,99509.09
2022-10-16T18:26:05.897Z,99509.22
2022-10-16T18:28:33.067Z,99512.94
2022-10-16T18:31:18.435Z,99507.91
2022-10-16T18:33:48.621Z,99511.66
2022-10-16T18:36:16.602Z,99509.09
2022-10-16T18:38:43.387Z,99511.09
2022-10-16T18:41:10.368Z,99518.38
2022-10-16T18:43:38.095Z,99514.94
2022-10-16T18:46:07.199Z,99507.81
2022-10-16T18:48:34.235Z,99514.25
2022-10-16T18:51:14.307Z,99519.97
2022-10-16T18:53:41.765Z,99525.41
2022-10-16T18:56:08.795Z,99531.00
2022-10-16T18:58:35.981Z,99534.00
2022-10-16T19:01:05.120Z,99540.63
2022-10-16T19:03:32.371Z,99542.31
2022-10-16T19:06:01.220Z,99545.19
2022-10-16T19:08:28.114Z,99549.78
2022-10-16T19:10:55.141Z,99543.47
2022-10-16T19:13:21.902Z,99550.06
2022-10-16T19:15:58.046Z,99543.00
2022-10-16T19:18:27.009Z,99555.75
2022-10-16T19:20:54.813Z,99557.75
2022-10-16T19:23:21.955Z,99554.19
2022-10-16T19:25:49.003Z,99566.19
2022-10-16T19:28:15.800Z,99569.81
2022-10-16T19:30:45.927Z,99568.06
2022-10-16T19:33:13.306Z,99570.09
2022-10-16T19:35:40.847Z,99570.22
2022-10-16T19:38:07.667Z,99573.22
2022-10-16T19:40:34.651Z,99579.22
2022-10-16T19:43:01.527Z,99576.50
2022-10-16T19:45:28.509Z,99567.50
2022-10-16T19:47:55.389Z,99565.75
2022-10-16T19:50:22.401Z,99571.34
2022-10-16T19:52:49.164Z,99563.19
2022-10-16T19:55:17.698Z,99581.22
2022-10-16T19:57:44.505Z,99575.66
2022-10-16T20:00:12.082Z,99575.84
2022-10-16T20:02:38.889Z,99580.75
2022-10-16T20:05:06.473Z,99589.06
2022-10-16T20:07:34.898Z,99579.69
2022-10-16T20:10:02.381Z,99587.41
2022-10-16T20:12:29.169Z,99587.84
2022-10-16T20:14:56.201Z,99592.56
2022-10-16T20:17:23.021Z,99600.72
2022-10-16T20:19:49.990Z,99608.16
2022-10-16T20:22:16.774Z,99596.56
2022-10-16T20:24:43.850Z,99603.88
2022-10-16T20:27:10.698Z,99600.41
2022-10-16T20:29:37.865Z,99606.00
2022-10-16T20:32:04.779Z,99605.13
2022-10-16T20:34:31.832Z,99596.97
2022-10-16T20:36:58.639Z,99601.56
2022-10-16T20:39:25.655Z,99604.41
2022-10-16T20:41:52.519Z,99599.97
2022-10-16T20:44:19.505Z,99601.84
2022-10-16T20:46:46.290Z,99608.25
2022-10-16T20:49:28.181Z,99611.13
2022-10-16T20:52:00.103Z,99616.69
2022-10-16T20:54:27.135Z,99615.00
2022-10-16T20:56:54.410Z,99621.56
2022-10-16T20:59:21.411Z,99620.72
2022-10-16T21:01:48.251Z,99614.69
2022-10-16T21:04:15.415Z,99620.00
2022-10-16T21:06:42.279Z,99614.81
2022-10-16T21:09:10.100Z,99619.28
2022-10-16T21:11:37.242Z,99618.97
2022-10-16T21:14:05.365Z,99623.97
2022-10-16T21:16:32.209Z,99628.28
2022-10-16T21:18:59.229Z,99631.28
2022-10-16T21:21:30.699Z,99633.03
2022-10-16T21:23:58.225Z,99638.72
2022-10-16T21:26:28.505Z,99641.44
2022-10-16T21:29:06.261Z,99644.16
2022-10-16T21:31:33.308Z,99649.47
2022-10-16T21:34:04.641Z,99652.47
2022-10-16T21:36:33.617Z,99643.16
2022-10-16T21:39:06.450Z,99646.91
2022-10-16T21:41:33.363Z,99652.47
2022-10-16T21:44:00.472Z,99652.47
2022-10-16T21:46:28.731Z,99658.91
2022-10-16T21:48:56.243Z,99662.50
2022-10-16T21:51:31.266Z,99663.50
2022-10-16T21:53:58.209Z,99670.66
2022-10-16T21:56:25.005Z,99672.63
2022-10-16T21:58:52.090Z,99679.94
2022-10-16T22:01:20.801Z,99674.50
2022-10-16T22:03:48.406Z,99677.22
2022-10-16T22:06:16.160Z,99678.38
2022-10-16T22:08:43.519Z,99669.47
2022-10-16T22:11:11.037Z,99678.50
2022-10-16T22:13:38.536Z,99675.91
2022-10-16T22:16:05.466Z,99680.34
2022-10-16T22:18:32.896Z,99684.09
2022-10-16T22:20:59.679Z,99682.34
2022-10-16T22:23:26.751Z,99679.75
2022-10-16T22:25:59.427Z,99671.84
2022-10-16T22:28:26.450Z,99671.00
2022-10-16T22:30:53.276Z,99677.44
2022-10-16T22:33:20.813Z,99674.72
2022-10-16T22:35:47.629Z,99682.16
2022-10-16T22:38:14.683Z,99690.31
2022-10-16T22:40:41.645Z,99686.72
2022-10-16T22:43:08.673Z,99688.72
2022-10-16T22:45:35.609Z,99688.72
2022-10-16T22:48:02.941Z,99686.88
2022-10-16T22:50:29.858Z,99687.13
2022-10-16T22:52:56.948Z,99687.25
2022-10-16T22:55:23.826Z,99687.25
2022-10-16T22:57:50.905Z,99684.06
2022-10-16T23:00:19.082Z,99687.81
2022-10-16T23:02:46.227Z,99688.91
2022-10-16T23:05:13.073Z,99690.53
2022-10-16T23:07:40.149Z,99696.09
2022-10-16T23:10:08.007Z,99694.38
2022-10-16T23:12:35.768Z,99694.50
2022-10-16T23:15:02.624Z,99691.78
2022-10-16T23:17:29.653Z,99693.63
2022-10-16T23:19:56.429Z,99695.75
2022-10-16T23:22:23.403Z,99700.19
2022-10-16T23:24:50.187Z,99699.59
2022-10-16T23:27:17.227Z,99695.91
2022-10-16T23:29:44.003Z,99702.56
2022-10-16T23:32:10.986Z,99701.00
2022-10-16T23:34:37.844Z,99695.44
2022-10-16T23:37:06.569Z,99701.09
2022-10-16T23:39:33.593Z,99702.06
2022-10-16T23:42:00.577Z,99708.38
2022-10-16T23:44:27.354Z,99703.94
2022-10-16T23:46:54.381Z,99712.34
2022-10-16T23:49:21.238Z,99709.88
2022-10-16T23:51:48.256Z,99701.00
2022-10-16T23:54:15.043Z,99704.56
2022-10-16T23:56:42.038Z,99702.88
2022-10-16T23:59:08.797Z,99704.84
